sensor_id;sensor_type;location;lat;lon;timestamp;pressure;altitude;pressure_sealevel;temperature;humidity
72055;BME280;59936;51.490;5.436;2023-04-10T00:01:41;101965.00;;;9.73;60.51
72055;BME280;59936;51.490;5.436;2023-04-10T00:04:07;101967.47;;;9.65;62.50
72055;BME280;59936;51.490;5.436;2023-04-10T00:06:33;101953.56;;;9.71;60.42
72055;BME280;59936;51.490;5.436;2023-04-10T00:08:59;101947.97;;;9.74;62.31
72055;BME280;59936;51.490;5.436;2023-04-10T00:11:25;101940.53;;;9.78;60.42
72055;BME280;59936;51.490;5.436;2023-04-10T00:13:51;101932.50;;;9.78;62.07
72055;BME280;59936;51.490;5.436;2023-04-10T00:16:17;101928.47;;;9.62;60.70
72055;BME280;59936;51.490;5.436;2023-04-10T00:18:43;101928.84;;;9.58;61.27
72055;BME280;59936;51.490;5.436;2023-04-10T00:21:09;101928.84;;;9.58;61.27
72055;BME280;59936;51.490;5.436;2023-04-10T00:23:36;101925.06;;;9.60;62.47
72055;BME280;59936;51.490;5.436;2023-04-10T00:26:02;101921.16;;;9.64;60.59
72055;BME280;59936;51.490;5.436;2023-04-10T00:28:28;101913.72;;;9.68;60.70
72055;BME280;59936;51.490;5.436;2023-04-10T00:30:53;101925.72;;;9.73;60.28
72055;BME280;59936;51.490;5.436;2023-04-10T00:33:19;101925.72;;;9.73;60.28
72055;BME280;59936;51.490;5.436;2023-04-10T00:35:45;101909.06;;;9.70;60.51
72055;BME280;59936;51.490;5.436;2023-04-10T00:38:11;101900.78;;;9.73;60.32
72055;BME280;59936;51.490;5.436;2023-04-10T00:40:37;101900.78;;;9.73;60.32
72055;BME280;59936;51.490;5.436;2023-04-10T00:43:02;101899.31;;;9.59;61.82
72055;BME280;59936;51.490;5.436;2023-04-10T00:45:28;101900.41;;;9.57;60.72
72055;BME280;59936;51.490;5.436;2023-04-10T00:47:54;101905.91;;;9.55;62.08
72055;BME280;59936;51.490;5.436;2023-04-10T00:50:21;101887.91;;;9.57;60.66
72055;BME280;59936;51.490;5.436;2023-04-10T00:52:47;101893.50;;;9.54;60.43
72055;BME280;59936;51.490;5.436;2023-04-10T00:55:14;101897.41;;;9.50;60.82
72055;BME280;59936;51.490;5.436;2023-04-10T00:57:43;101896.31;;;9.53;60.63
72055;BME280;59936;51.490;5.436;2023-04-10T01:00:09;101886.28;;;9.45;61.16
72055;BME280;59936;51.490;5.436;2023-04-10T01:02:35;101887.94;;;9.46;61.02
72055;BME280;59936;51.490;5.436;2023-04-10T01:05:01;101883.03;;;9.42;60.92
72055;BME280;59936;51.490;5.436;2023-04-10T01:10:23;101895.97;;;9.25;62.82
72055;BME280;59936;51.490;5.436;2023-04-10T01:13:10;101887.25;;;9.23;61.72
72055;BME280;59936;51.490;5.436;2023-04-10T01:16:01;101881.91;;;9.23;62.16
72055;BME280;59936;51.490;5.436;2023-04-10T01:18:39;101881.91;;;9.23;62.16
72055;BME280;59936;51.490;5.436;2023-04-10T01:21:11;101878.06;;;9.16;61.53
72055;BME280;59936;51.490;5.436;2023-04-10T01:24:18;101868.22;;;9.17;61.73
72055;BME280;59936;51.490;5.436;2023-04-10T01:29:28;101876.22;;;9.05;61.79
72055;BME280;59936;51.490;5.436;2023-04-10T01:32:08;101868.16;;;8.96;62.04
72055;BME280;59936;51.490;5.436;2023-04-10T01:34:41;101878.59;;;8.99;61.90
72055;BME280;59936;51.490;5.436;2023-04-10T01:37:12;101878.25;;;8.92;61.76
72055;BME280;59936;51.490;5.436;2023-04-10T01:39:41;101878.25;;;8.92;61.76
72055;BME280;59936;51.490;5.436;2023-04-10T01:42:09;101876.66;;;8.90;62.04
72055;BME280;59936;51.490;5.436;2023-04-10T01:44:40;101872.56;;;8.86;62.06
72055;BME280;59936;51.490;5.436;2023-04-10T01:47:06;101864.34;;;8.78;62.21
72055;BME280;59936;51.490;5.436;2023-04-10T01:49:33;101858.53;;;8.73;62.37
72055;BME280;59936;51.490;5.436;2023-04-10T01:52:00;101859.72;;;8.80;62.29
72055;BME280;59936;51.490;5.436;2023-04-10T01:54:27;101859.44;;;8.83;62.14
72055;BME280;59936;51.490;5.436;2023-04-10T01:56:53;101860.22;;;8.74;62.20
72055;BME280;59936;51.490;5.436;2023-04-10T01:59:20;101852.72;;;8.67;62.55
72055;BME280;59936;51.490;5.436;2023-04-10T02:01:46;101844.81;;;8.66;62.33
72055;BME280;59936;51.490;5.436;2023-04-10T02:04:12;101849.84;;;8.59;62.28
72055;BME280;59936;51.490;5.436;2023-04-10T02:06:47;101842.56;;;8.50;62.64
72055;BME280;59936;51.490;5.436;2023-04-10T02:09:41;101834.81;;;8.47;62.46
72055;BME280;59936;51.490;5.436;2023-04-10T02:12:15;101824.44;;;8.33;62.97
72055;BME280;59936;51.490;5.436;2023-04-10T02:14:45;101823.47;;;8.23;62.93
72055;BME280;59936;51.490;5.436;2023-04-10T02:17:13;101820.31;;;8.18;63.16
72055;BME280;59936;51.490;5.436;2023-04-10T02:19:41;101818.91;;;8.14;63.50
72055;BME280;59936;51.490;5.436;2023-04-10T02:22:08;101813.81;;;8.11;63.71
72055;BME280;59936;51.490;5.436;2023-04-10T02:24:34;101815.75;;;8.09;63.57
72055;BME280;59936;51.490;5.436;2023-04-10T02:27:00;101820.94;;;8.10;63.75
72055;BME280;59936;51.490;5.436;2023-04-10T02:29:25;101817.81;;;7.94;63.90
72055;BME280;59936;51.490;5.436;2023-04-10T02:31:51;101817.81;;;7.94;63.90
72055;BME280;59936;51.490;5.436;2023-04-10T02:34:17;101810.19;;;7.89;64.67
72055;BME280;59936;51.490;5.436;2023-04-10T02:36:43;101810.19;;;7.89;64.67
72055;BME280;59936;51.490;5.436;2023-04-10T02:39:09;101808.84;;;7.84;65.88
72055;BME280;59936;51.490;5.436;2023-04-10T02:41:35;101807.53;;;7.89;64.45
72055;BME280;59936;51.490;5.436;2023-04-10T02:44:01;101814.66;;;7.89;64.08
72055;BME280;59936;51.490;5.436;2023-04-10T02:46:26;101806.53;;;7.79;63.86
72055;BME280;59936;51.490;5.436;2023-04-10T02:48:52;101807.88;;;7.62;66.09
72055;BME280;59936;51.490;5.436;2023-04-10T02:51:18;101819.41;;;7.63;64.78
72055;BME280;59936;51.490;5.436;2023-04-10T02:53:44;101819.41;;;7.63;64.78
72055;BME280;59936;51.490;5.436;2023-04-10T02:56:10;101815.50;;;7.56;65.01
72055;BME280;59936;51.490;5.436;2023-04-10T02:58:36;101810.41;;;7.53;64.79
72055;BME280;59936;51.490;5.436;2023-04-10T03:01:02;101812.84;;;7.45;65.08
72055;BME280;59936;51.490;5.436;2023-04-10T03:03:29;101813.53;;;7.36;66.58
72055;BME280;59936;51.490;5.436;2023-04-10T03:06:01;101803.63;;;7.38;65.13
72055;BME280;59936;51.490;5.436;2023-04-10T03:08:27;101809.81;;;7.38;65.07
72055;BME280;59936;51.490;5.436;2023-04-10T03:10:53;101809.81;;;7.38;65.07
72055;BME280;59936;51.490;5.436;2023-04-10T03:13:19;101802.53;;;7.40;65.35
72055;BME280;59936;51.490;5.436;2023-04-10T03:15:45;101812.72;;;7.46;65.43
72055;BME280;59936;51.490;5.436;2023-04-10T03:18:11;101821.34;;;7.50;65.40
72055;BME280;59936;51.490;5.436;2023-04-10T03:20:37;101823.63;;;7.43;65.10
72055;BME280;59936;51.490;5.436;2023-04-10T03:23:03;101823.63;;;7.43;65.10
72055;BME280;59936;51.490;5.436;2023-04-10T03:25:29;101819.84;;;7.34;67.94
72055;BME280;59936;51.490;5.436;2023-04-10T03:27:55;101815.97;;;7.39;65.43
72055;BME280;59936;51.490;5.436;2023-04-10T03:30:21;101820.69;;;7.35;65.98
72055;BME280;59936;51.490;5.436;2023-04-10T03:32:47;101812.81;;;7.33;65.61
72055;BME280;59936;51.490;5.436;2023-04-10T03:35:13;101810.75;;;7.37;68.19
72055;BME280;59936;51.490;5.436;2023-04-10T03:37:39;101809.56;;;7.41;65.63
72055;BME280;59936;51.490;5.436;2023-04-10T03:40:05;101805.19;;;7.40;65.01
72055;BME280;59936;51.490;5.436;2023-04-10T03:42:40;101801.09;;;7.47;67.36
72055;BME280;59936;51.490;5.436;2023-04-10T03:45:10;101797.09;;;7.53;64.72
72055;BME280;59936;51.490;5.436;2023-04-10T03:47:36;101797.59;;;7.47;64.49
72055;BME280;59936;51.490;5.436;2023-04-10T03:50:02;101790.75;;;7.31;64.62
72055;BME280;59936;51.490;5.436;2023-04-10T03:52:27;101790.75;;;7.31;64.62
72055;BME280;59936;51.490;5.436;2023-04-10T03:54:54;101789.69;;;7.23;64.83
72055;BME280;59936;51.490;5.436;2023-04-10T03:57:19;101778.88;;;7.13;65.86
72055;BME280;59936;51.490;5.436;2023-04-10T03:59:46;101781.75;;;6.99;67.69
72055;BME280;59936;51.490;5.436;2023-04-10T04:02:12;101787.53;;;6.93;66.06
72055;BME280;59936;51.490;5.436;2023-04-10T04:04:39;101786.56;;;6.83;65.48
72055;BME280;59936;51.490;5.436;2023-04-10T04:07:05;101785.94;;;6.79;65.59
72055;BME280;59936;51.490;5.436;2023-04-10T04:09:31;101772.97;;;6.75;65.54
72055;BME280;59936;51.490;5.436;2023-04-10T04:11:59;101775.31;;;6.66;65.88
72055;BME280;59936;51.490;5.436;2023-04-10T04:14:27;101774.69;;;6.87;66.34
72055;BME280;59936;51.490;5.436;2023-04-10T04:16:53;101774.13;;;6.94;65.54
72055;BME280;59936;51.490;5.436;2023-04-10T04:19:19;101774.13;;;6.94;65.54
72055;BME280;59936;51.490;5.436;2023-04-10T04:21:45;101768.78;;;6.83;65.41
72055;BME280;59936;51.490;5.436;2023-04-10T04:24:11;101767.72;;;6.97;65.36
72055;BME280;59936;51.490;5.436;2023-04-10T04:26:37;101767.72;;;6.97;65.36
72055;BME280;59936;51.490;5.436;2023-04-10T04:29:02;101754.66;;;7.05;64.72
72055;BME280;59936;51.490;5.436;2023-04-10T04:31:34;101765.69;;;7.12;65.36
72055;BME280;59936;51.490;5.436;2023-04-10T04:34:00;101755.75;;;7.03;67.85
72055;BME280;59936;51.490;5.436;2023-04-10T04:36:26;101761.31;;;6.99;65.83
72055;BME280;59936;51.490;5.436;2023-04-10T04:38:53;101755.38;;;6.96;66.02
72055;BME280;59936;51.490;5.436;2023-04-10T04:41:19;101753.16;;;6.90;65.45
72055;BME280;59936;51.490;5.436;2023-04-10T04:43:45;101750.72;;;6.87;65.97
72055;BME280;59936;51.490;5.436;2023-04-10T04:46:11;101753.41;;;6.87;66.02
72055;BME280;59936;51.490;5.436;2023-04-10T04:48:36;101757.06;;;6.86;66.16
72055;BME280;59936;51.490;5.436;2023-04-10T04:51:04;101750.16;;;6.94;67.03
72055;BME280;59936;51.490;5.436;2023-04-10T04:53:30;101749.81;;;7.10;66.11
72055;BME280;59936;51.490;5.436;2023-04-10T04:56:02;101749.81;;;7.10;66.11
72055;BME280;59936;51.490;5.436;2023-04-10T04:58:28;101743.28;;;7.03;65.88
72055;BME280;59936;51.490;5.436;2023-04-10T05:00:54;101754.16;;;7.11;65.67
72055;BME280;59936;51.490;5.436;2023-04-10T05:03:19;101754.16;;;7.11;65.67
72055;BME280;59936;51.490;5.436;2023-04-10T05:05:46;101741.72;;;7.12;65.67
72055;BME280;59936;51.490;5.436;2023-04-10T05:08:12;101735.28;;;7.14;65.64
72055;BME280;59936;51.490;5.436;2023-04-10T05:10:38;101738.44;;;7.08;65.57
72055;BME280;59936;51.490;5.436;2023-04-10T05:13:04;101737.03;;;7.26;66.47
72055;BME280;59936;51.490;5.436;2023-04-10T05:15:30;101733.97;;;7.31;66.17
72055;BME280;59936;51.490;5.436;2023-04-10T05:17:56;101724.41;;;7.40;65.56
72055;BME280;59936;51.490;5.436;2023-04-10T05:20:22;101725.41;;;7.50;64.96
72055;BME280;59936;51.490;5.436;2023-04-10T05:22:49;101717.84;;;7.55;65.31
72055;BME280;59936;51.490;5.436;2023-04-10T05:25:15;101709.88;;;7.55;66.51
72055;BME280;59936;51.490;5.436;2023-04-10T05:27:41;101715.19;;;7.66;64.52
72055;BME280;59936;51.490;5.436;2023-04-10T05:30:07;101715.19;;;7.66;64.52
72055;BME280;59936;51.490;5.436;2023-04-10T05:32:33;101714.47;;;7.64;64.56
72055;BME280;59936;51.490;5.436;2023-04-10T05:34:59;101711.19;;;7.72;64.72
72055;BME280;59936;51.490;5.436;2023-04-10T05:37:25;101708.50;;;7.83;64.82
72055;BME280;59936;51.490;5.436;2023-04-10T05:39:50;101713.47;;;7.87;64.35
72055;BME280;59936;51.490;5.436;2023-04-10T05:42:16;101716.50;;;7.94;64.48
72055;BME280;59936;51.490;5.436;2023-04-10T05:44:43;101722.72;;;8.15;63.82
72055;BME280;59936;51.490;5.436;2023-04-10T05:47:09;101722.72;;;8.15;63.82
72055;BME280;59936;51.490;5.436;2023-04-10T05:49:35;101717.72;;;8.22;63.87
72055;BME280;59936;51.490;5.436;2023-04-10T05:52:01;101714.28;;;8.31;63.67
72055;BME280;59936;51.490;5.436;2023-04-10T05:54:30;101717.16;;;8.39;63.54
72055;BME280;59936;51.490;5.436;2023-04-10T05:56:56;101715.81;;;8.45;63.72
72055;BME280;59936;51.490;5.436;2023-04-10T05:59:22;101723.19;;;8.52;63.42
72055;BME280;59936;51.490;5.436;2023-04-10T06:01:48;101730.34;;;8.73;62.93
72055;BME280;59936;51.490;5.436;2023-04-10T06:04:14;101730.34;;;8.73;62.93
72055;BME280;59936;51.490;5.436;2023-04-10T06:06:40;101724.50;;;8.79;62.72
72055;BME280;59936;51.490;5.436;2023-04-10T06:09:05;101726.63;;;8.85;63.73
72055;BME280;59936;51.490;5.436;2023-04-10T06:11:31;101732.19;;;8.93;62.66
72055;BME280;59936;51.490;5.436;2023-04-10T06:13:57;101727.16;;;9.20;62.34
72055;BME280;59936;51.490;5.436;2023-04-10T06:16:23;101727.16;;;9.20;62.34
72055;BME280;59936;51.490;5.436;2023-04-10T06:18:49;101719.31;;;9.28;62.09
72055;BME280;59936;51.490;5.436;2023-04-10T06:21:14;101721.00;;;9.29;61.32
72055;BME280;59936;51.490;5.436;2023-04-10T06:23:40;101715.31;;;9.44;61.65
72055;BME280;59936;51.490;5.436;2023-04-10T06:26:06;101716.78;;;9.57;61.43
72055;BME280;59936;51.490;5.436;2023-04-10T06:28:32;101709.47;;;9.69;61.04
72055;BME280;59936;51.490;5.436;2023-04-10T06:30:59;101701.63;;;9.77;60.52
72055;BME280;59936;51.490;5.436;2023-04-10T06:33:24;101695.75;;;10.02;60.75
72055;BME280;59936;51.490;5.436;2023-04-10T06:35:50;101695.75;;;10.02;60.75
72055;BME280;59936;51.490;5.436;2023-04-10T06:38:16;101682.81;;;10.07;60.65
72055;BME280;59936;51.490;5.436;2023-04-10T06:40:42;101688.31;;;10.16;60.45
72055;BME280;59936;51.490;5.436;2023-04-10T06:43:08;101681.13;;;10.16;60.09
72055;BME280;59936;51.490;5.436;2023-04-10T06:45:34;101681.28;;;10.24;60.39
72055;BME280;59936;51.490;5.436;2023-04-10T06:48:02;101672.66;;;10.40;60.33
72055;BME280;59936;51.490;5.436;2023-04-10T06:50:31;101669.84;;;10.51;59.92
72055;BME280;59936;51.490;5.436;2023-04-10T06:52:57;101666.19;;;10.42;59.27
72055;BME280;59936;51.490;5.436;2023-04-10T06:55:23;101665.75;;;10.57;59.70
72055;BME280;59936;51.490;5.436;2023-04-10T06:57:48;101649.94;;;10.63;59.38
72055;BME280;59936;51.490;5.436;2023-04-10T07:00:15;101649.94;;;10.63;59.38
72055;BME280;59936;51.490;5.436;2023-04-10T07:02:41;101647.25;;;10.73;59.14
72055;BME280;59936;51.490;5.436;2023-04-10T07:05:06;101645.56;;;10.72;59.05
72055;BME280;59936;51.490;5.436;2023-04-10T07:07:32;101636.97;;;10.68;56.13
72055;BME280;59936;51.490;5.436;2023-04-10T07:09:58;101630.88;;;10.76;58.83
72055;BME280;59936;51.490;5.436;2023-04-10T07:12:24;101632.25;;;10.90;59.01
72055;BME280;59936;51.490;5.436;2023-04-10T07:14:49;101632.25;;;10.90;59.01
72055;BME280;59936;51.490;5.436;2023-04-10T07:17:15;101625.63;;;10.94;58.54
72055;BME280;59936;51.490;5.436;2023-04-10T07:19:41;101625.63;;;10.94;58.54
72055;BME280;59936;51.490;5.436;2023-04-10T07:22:07;101618.16;;;10.88;56.31
72055;BME280;59936;51.490;5.436;2023-04-10T07:24:33;101624.63;;;11.04;58.34
72055;BME280;59936;51.490;5.436;2023-04-10T07:26:58;101612.31;;;11.12;55.60
72055;BME280;59936;51.490;5.436;2023-04-10T07:29:24;101602.22;;;11.23;57.97
72055;BME280;59936;51.490;5.436;2023-04-10T07:31:50;101594.75;;;11.27;57.00
72055;BME280;59936;51.490;5.436;2023-04-10T07:34:16;101594.44;;;11.30;57.71
72055;BME280;59936;51.490;5.436;2023-04-10T07:36:41;101598.16;;;11.47;55.45
72055;BME280;59936;51.490;5.436;2023-04-10T07:39:07;101600.19;;;11.80;57.39
72055;BME280;59936;51.490;5.436;2023-04-10T07:41:33;101588.53;;;11.71;52.20
72055;BME280;59936;51.490;5.436;2023-04-10T07:43:59;101589.91;;;11.93;56.47
72055;BME280;59936;51.490;5.436;2023-04-10T07:46:24;101591.75;;;12.80;55.60
72055;BME280;59936;51.490;5.436;2023-04-10T07:48:50;101591.75;;;12.80;55.60
72055;BME280;59936;51.490;5.436;2023-04-10T07:51:16;101566.16;;;13.02;52.69
72055;BME280;59936;51.490;5.436;2023-04-10T07:53:42;101563.97;;;13.47;53.28
72055;BME280;59936;51.490;5.436;2023-04-10T07:56:13;101559.28;;;13.82;49.79
72055;BME280;59936;51.490;5.436;2023-04-10T07:58:39;101551.25;;;14.06;53.39
72055;BME280;59936;51.490;5.436;2023-04-10T08:01:05;101548.00;;;14.51;51.91
72055;BME280;59936;51.490;5.436;2023-04-10T08:03:40;101548.56;;;14.31;46.14
72055;BME280;59936;51.490;5.436;2023-04-10T08:06:09;101536.91;;;15.02;52.01
72055;BME280;59936;51.490;5.436;2023-04-10T08:08:37;101529.47;;;15.04;52.01
72055;BME280;59936;51.490;5.436;2023-04-10T08:11:27;101530.81;;;15.08;52.63
72055;BME280;59936;51.490;5.436;2023-04-10T08:13:54;101528.91;;;15.25;51.88
72055;BME280;59936;51.490;5.436;2023-04-10T08:16:24;101527.72;;;14.80;51.41
72055;BME280;59936;51.490;5.436;2023-04-10T08:18:51;101526.50;;;14.43;53.58
72055;BME280;59936;51.490;5.436;2023-04-10T08:21:18;101530.50;;;14.56;53.96
72055;BME280;59936;51.490;5.436;2023-04-10T08:23:44;101530.50;;;14.56;53.96
72055;BME280;59936;51.490;5.436;2023-04-10T08:26:10;101525.53;;;14.20;54.01
72055;BME280;59936;51.490;5.436;2023-04-10T08:28:36;101525.53;;;14.20;54.01
72055;BME280;59936;51.490;5.436;2023-04-10T08:31:02;101529.75;;;13.98;54.02
72055;BME280;59936;51.490;5.436;2023-04-10T08:33:28;101530.41;;;14.08;53.82
72055;BME280;59936;51.490;5.436;2023-04-10T08:35:57;101523.97;;;14.26;53.84
72055;BME280;59936;51.490;5.436;2023-04-10T08:38:23;101523.84;;;14.19;51.75
72055;BME280;59936;51.490;5.436;2023-04-10T08:40:49;101518.75;;;14.87;52.43
72055;BME280;59936;51.490;5.436;2023-04-10T08:43:15;101518.75;;;14.87;52.43
72055;BME280;59936;51.490;5.436;2023-04-10T08:45:41;101507.97;;;14.87;52.50
72055;BME280;59936;51.490;5.436;2023-04-10T08:48:09;101509.53;;;14.82;52.01
72055;BME280;59936;51.490;5.436;2023-04-10T08:50:39;101513.91;;;14.75;51.93
72055;BME280;59936;51.490;5.436;2023-04-10T08:53:11;101510.97;;;14.53;51.81
72055;BME280;59936;51.490;5.436;2023-04-10T08:55:38;101509.81;;;14.40;52.16
72055;BME280;59936;51.490;5.436;2023-04-10T08:58:06;101509.81;;;14.40;52.16
72055;BME280;59936;51.490;5.436;2023-04-10T09:00:33;101506.41;;;14.46;52.24
72055;BME280;59936;51.490;5.436;2023-04-10T09:03:00;101506.91;;;14.58;52.65
72055;BME280;59936;51.490;5.436;2023-04-10T09:05:26;101500.34;;;14.52;51.97
72055;BME280;59936;51.490;5.436;2023-04-10T09:07:52;101500.53;;;14.50;52.06
72055;BME280;59936;51.490;5.436;2023-04-10T09:10:18;101505.22;;;14.57;52.22
72055;BME280;59936;51.490;5.436;2023-04-10T09:12:45;101500.13;;;14.70;49.10
72055;BME280;59936;51.490;5.436;2023-04-10T09:15:11;101496.38;;;15.10;51.52
72055;BME280;59936;51.490;5.436;2023-04-10T09:17:37;101495.13;;;14.98;51.09
72055;BME280;59936;51.490;5.436;2023-04-10T09:20:19;101495.28;;;14.65;51.54
72055;BME280;59936;51.490;5.436;2023-04-10T09:22:45;101500.50;;;14.59;49.34
72055;BME280;59936;51.490;5.436;2023-04-10T09:28:04;101490.13;;;15.48;48.18
72055;BME280;59936;51.490;5.436;2023-04-10T09:30:41;101490.13;;;15.48;48.18
72055;BME280;59936;51.490;5.436;2023-04-10T09:33:22;101473.81;;;15.42;50.03
72055;BME280;59936;51.490;5.436;2023-04-10T09:35:49;101466.84;;;15.47;50.82
72055;BME280;59936;51.490;5.436;2023-04-10T09:38:17;101468.94;;;15.60;50.76
72055;BME280;59936;51.490;5.436;2023-04-10T09:40:44;101469.19;;;15.28;50.98
72055;BME280;59936;51.490;5.436;2023-04-10T09:43:23;101460.19;;;15.04;51.33
72055;BME280;59936;51.490;5.436;2023-04-10T09:45:51;101443.94;;;15.20;51.09
72055;BME280;59936;51.490;5.436;2023-04-10T09:48:19;101443.94;;;15.20;51.09
72055;BME280;59936;51.490;5.436;2023-04-10T09:50:45;101430.59;;;15.19;51.47
72055;BME280;59936;51.490;5.436;2023-04-10T09:53:14;101425.84;;;15.29;51.36
72055;BME280;59936;51.490;5.436;2023-04-10T09:55:41;101424.41;;;15.41;51.06
72055;BME280;59936;51.490;5.436;2023-04-10T09:58:07;101424.41;;;15.41;51.06
72055;BME280;59936;51.490;5.436;2023-04-10T10:03:08;101426.44;;;15.77;49.63
72055;BME280;59936;51.490;5.436;2023-04-10T10:05:36;101424.41;;;15.79;49.65
72055;BME280;59936;51.490;5.436;2023-04-10T10:08:03;101415.56;;;15.85;49.99
72055;BME280;59936;51.490;5.436;2023-04-10T10:10:29;101421.69;;;15.79;49.75
72055;BME280;59936;51.490;5.436;2023-04-10T10:12:58;101411.66;;;15.87;48.99
72055;BME280;59936;51.490;5.436;2023-04-10T10:15:35;101411.13;;;15.92;49.41
72055;BME280;59936;51.490;5.436;2023-04-10T10:18:08;101413.56;;;16.16;48.53
72055;BME280;59936;51.490;5.436;2023-04-10T10:20:37;101392.31;;;16.28;46.75
72055;BME280;59936;51.490;5.436;2023-04-10T10:23:05;101386.59;;;16.67;48.55
72055;BME280;59936;51.490;5.436;2023-04-10T10:25:33;101378.78;;;16.94;47.91
72055;BME280;59936;51.490;5.436;2023-04-10T10:28:02;101382.59;;;16.78;47.92
72055;BME280;59936;51.490;5.436;2023-04-10T10:30:31;101373.78;;;17.12;47.76
72055;BME280;59936;51.490;5.436;2023-04-10T10:32:58;101371.69;;;17.35;46.18
72055;BME280;59936;51.490;5.436;2023-04-10T10:35:25;101376.09;;;17.36;45.76
72055;BME280;59936;51.490;5.436;2023-04-10T10:37:51;101363.47;;;17.71;46.74
72055;BME280;59936;51.490;5.436;2023-04-10T10:43:35;101356.19;;;18.00;46.69
72055;BME280;59936;51.490;5.436;2023-04-10T10:46:12;101344.31;;;18.01;46.05
72055;BME280;59936;51.490;5.436;2023-04-10T10:48:57;101343.25;;;18.43;44.80
72055;BME280;59936;51.490;5.436;2023-04-10T10:51:50;101357.75;;;18.22;46.06
72055;BME280;59936;51.490;5.436;2023-04-10T10:54:34;101336.44;;;17.78;42.79
72055;BME280;59936;51.490;5.436;2023-04-10T10:57:01;101335.09;;;17.61;42.93
72055;BME280;59936;51.490;5.436;2023-04-10T11:02:13;101325.03;;;17.33;43.77
72055;BME280;59936;51.490;5.436;2023-04-10T11:04:43;101313.16;;;17.55;45.75
72055;BME280;59936;51.490;5.436;2023-04-10T11:07:12;101312.47;;;18.64;45.13
72055;BME280;59936;51.490;5.436;2023-04-10T11:09:49;101312.47;;;18.64;45.13
72055;BME280;59936;51.490;5.436;2023-04-10T11:12:18;101305.47;;;19.48;43.88
72055;BME280;59936;51.490;5.436;2023-04-10T11:14:56;101299.41;;;19.33;43.04
72055;BME280;59936;51.490;5.436;2023-04-10T11:17:51;101307.13;;;19.23;42.12
72055;BME280;59936;51.490;5.436;2023-04-10T11:20:17;101307.13;;;19.23;42.12
72055;BME280;59936;51.490;5.436;2023-04-10T11:23:06;101289.81;;;19.63;43.62
72055;BME280;59936;51.490;5.436;2023-04-10T11:25:49;101292.94;;;19.08;40.01
72055;BME280;59936;51.490;5.436;2023-04-10T11:28:49;101276.44;;;19.42;42.39
72055;BME280;59936;51.490;5.436;2023-04-10T11:31:20;101278.72;;;19.06;43.68
72055;BME280;59936;51.490;5.436;2023-04-10T11:33:59;101278.72;;;19.06;43.68
72055;BME280;59936;51.490;5.436;2023-04-10T11:36:27;101264.53;;;19.04;43.31
72055;BME280;59936;51.490;5.436;2023-04-10T11:39:03;101259.53;;;19.01;43.98
72055;BME280;59936;51.490;5.436;2023-04-10T11:41:33;101266.63;;;18.75;43.72
72055;BME280;59936;51.490;5.436;2023-04-10T11:44:00;101258.03;;;18.65;43.93
72055;BME280;59936;51.490;5.436;2023-04-10T11:46:28;101248.34;;;18.43;44.02
72055;BME280;59936;51.490;5.436;2023-04-10T11:48:57;101251.00;;;18.23;43.99
72055;BME280;59936;51.490;5.436;2023-04-10T11:51:23;101244.75;;;18.22;44.11
72055;BME280;59936;51.490;5.436;2023-04-10T11:54:47;101233.38;;;17.92;43.78
72055;BME280;59936;51.490;5.436;2023-04-10T11:57:01;101228.09;;;18.25;41.83
72055;BME280;59936;51.490;5.436;2023-04-10T11:59:29;101234.06;;;18.69;43.22
72055;BME280;59936;51.490;5.436;2023-04-10T12:02:08;101241.56;;;19.00;41.90
72055;BME280;59936;51.490;5.436;2023-04-10T12:04:35;101241.56;;;19.00;41.90
72055;BME280;59936;51.490;5.436;2023-04-10T12:07:01;101235.31;;;18.99;43.09
72055;BME280;59936;51.490;5.436;2023-04-10T12:09:27;101227.16;;;18.79;43.27
72055;BME280;59936;51.490;5.436;2023-04-10T12:11:59;101214.00;;;19.03;43.16
72055;BME280;59936;51.490;5.436;2023-04-10T12:17:03;101206.69;;;19.29;42.99
72055;BME280;59936;51.490;5.436;2023-04-10T12:19:32;101206.69;;;19.29;42.99
72055;BME280;59936;51.490;5.436;2023-04-10T12:21:58;101199.81;;;19.14;42.81
72055;BME280;59936;51.490;5.436;2023-04-10T12:24:49;101196.91;;;18.95;43.52
72055;BME280;59936;51.490;5.436;2023-04-10T12:27:17;101196.91;;;18.95;43.52
72055;BME280;59936;51.490;5.436;2023-04-10T12:29:45;101194.63;;;18.66;43.53
72055;BME280;59936;51.490;5.436;2023-04-10T12:32:11;101194.63;;;18.66;43.53
72055;BME280;59936;51.490;5.436;2023-04-10T12:34:37;101188.97;;;18.68;43.42
72055;BME280;59936;51.490;5.436;2023-04-10T12:37:03;101182.94;;;18.66;43.70
72055;BME280;59936;51.490;5.436;2023-04-10T12:39:28;101187.31;;;18.67;43.66
72055;BME280;59936;51.490;5.436;2023-04-10T12:42:15;101169.34;;;18.59;42.13
72055;BME280;59936;51.490;5.436;2023-04-10T12:44:55;101169.34;;;18.59;42.13
72055;BME280;59936;51.490;5.436;2023-04-10T12:47:22;101165.31;;;18.22;43.29
72055;BME280;59936;51.490;5.436;2023-04-10T12:50:07;101172.19;;;18.11;42.93
72055;BME280;59936;51.490;5.436;2023-04-10T12:52:34;101176.47;;;17.92;44.19
72055;BME280;59936;51.490;5.436;2023-04-10T12:55:15;101165.00;;;17.90;42.53
72055;BME280;59936;51.490;5.436;2023-04-10T12:57:46;101160.47;;;17.98;44.44
72055;BME280;59936;51.490;5.436;2023-04-10T13:00:15;101165.47;;;18.01;44.56
72055;BME280;59936;51.490;5.436;2023-04-10T13:02:41;101145.00;;;17.85;42.89
72055;BME280;59936;51.490;5.436;2023-04-10T13:05:08;101157.28;;;17.81;44.92
72055;BME280;59936;51.490;5.436;2023-04-10T13:07:34;101149.53;;;17.71;44.63
72055;BME280;59936;51.490;5.436;2023-04-10T13:10:00;101136.63;;;17.73;44.77
72055;BME280;59936;51.490;5.436;2023-04-10T13:12:26;101134.97;;;17.79;44.58
72055;BME280;59936;51.490;5.436;2023-04-10T13:14:53;101128.97;;;17.83;44.61
72055;BME280;59936;51.490;5.436;2023-04-10T13:17:20;101126.63;;;17.74;44.96
72055;BME280;59936;51.490;5.436;2023-04-10T13:19:46;101126.63;;;17.74;44.96
72055;BME280;59936;51.490;5.436;2023-04-10T13:22:12;101127.66;;;17.66;44.72